Terminal Aerodrome Forecast
Issued by NWS Central Illinois

Home | Current Version | Previous Version | Text Only | Print | Product List | Glossary On
Versions: 1 2 3 4 5 6 7 8 9 10 11 12 13 14 15 16 17 18 19 20 21
000
FTUS43 KILX 242300
TAFPIA
TAF
KPIA 242337Z 2500/2524 19008KT P6SM BKN250
     FM250200 21005KT P6SM SCT025 BKN040
      TEMPO 2503/2507 BKN025
     FM250700 25004KT 4SM BR SCT025
     FM250900 25003KT 1SM BR SCT025
     FM251400 31008KT P6SM SCT015
     FM251800 32008KT P6SM SKC=

USA.gov is the U.S. government's official web portal to all federal, state and local government web resources and services.